createdAt,value
2017-05-11T00:01:06.955Z,66.59
2017-05-11T00:03:38.727Z,66.44
2017-05-11T00:06:10.406Z,67.07
2017-05-11T00:08:42.101Z,66.72
2017-05-11T00:11:13.755Z,66.72
2017-05-11T00:13:44.571Z,66.67
2017-05-11T00:16:15.354Z,67.07
2017-05-11T00:18:46.188Z,67.24
2017-05-11T00:21:16.950Z,67.63
2017-05-11T00:23:47.757Z,67.66
2017-05-11T00:26:18.569Z,67.58
2017-05-11T00:28:49.368Z,67.28
2017-05-11T00:31:20.123Z,67.52
2017-05-11T00:33:50.911Z,67.44
2017-05-11T00:36:22.540Z,67.84
2017-05-11T00:38:53.340Z,67.49
2017-05-11T00:41:24.091Z,67.38
2017-05-11T00:43:54.870Z,67.57
2017-05-11T00:46:25.633Z,67.66
2017-05-11T00:48:56.442Z,67.81
2017-05-11T00:51:27.202Z,67.90
2017-05-11T00:53:58.051Z,67.89
2017-05-11T00:56:29.685Z,67.78
2017-05-11T00:59:00.507Z,67.89
2017-05-11T01:01:31.364Z,67.75
2017-05-11T01:04:02.166Z,68.13
2017-05-11T01:06:33.083Z,68.01
2017-05-11T01:09:03.323Z,67.83
2017-05-11T01:11:35.018Z,68.17
2017-05-11T01:14:05.800Z,68.30
2017-05-11T01:16:36.610Z,68.23
2017-05-11T01:19:07.478Z,68.21
2017-05-11T01:21:38.227Z,68.58
2017-05-11T01:24:09.055Z,68.91
2017-05-11T01:26:39.867Z,68.67
2017-05-11T01:29:10.658Z,68.66
2017-05-11T01:31:41.437Z,68.67
2017-05-11T01:34:12.223Z,68.55
2017-05-11T01:36:42.977Z,68.48
2017-05-11T01:39:13.788Z,68.54
2017-05-11T01:41:44.186Z,68.87
2017-05-11T01:44:14.659Z,68.71
2017-05-11T01:46:45.412Z,68.80
2017-05-11T01:49:16.219Z,68.92
2017-05-11T01:51:47.019Z,69.11
2017-05-11T01:54:17.885Z,69.14
2017-05-11T01:56:48.686Z,69.22
2017-05-11T01:59:19.540Z,69.01
2017-05-11T02:01:50.296Z,69.31
2017-05-11T02:04:21.107Z,69.14
2017-05-11T02:06:51.861Z,68.90
2017-05-11T02:09:22.655Z,68.74
2017-05-11T02:11:54.323Z,68.86
2017-05-11T02:14:25.995Z,68.93
2017-05-11T02:16:56.744Z,68.66
2017-05-11T02:19:27.538Z,68.80
2017-05-11T02:21:58.381Z,69.23
2017-05-11T02:24:29.187Z,69.19
2017-05-11T02:27:00.027Z,69.20
2017-05-11T02:29:30.833Z,69.50
2017-05-11T02:32:01.586Z,69.28
2017-05-11T02:34:32.575Z,69.90
2017-05-11T02:37:03.395Z,69.93
2017-05-11T02:39:34.379Z,69.83
2017-05-11T02:42:05.125Z,69.62
2017-05-11T02:44:36.004Z,69.97
2017-05-11T02:47:07.478Z,69.76
2017-05-11T02:49:39.186Z,69.83
2017-05-11T02:52:09.958Z,70.38
2017-05-11T02:54:40.760Z,70.48
2017-05-11T02:57:11.531Z,70.41
2017-05-11T02:59:42.654Z,70.15
2017-05-11T03:02:13.778Z,70.27
2017-05-11T03:04:44.541Z,70.22
2017-05-11T03:07:15.628Z,70.04
2017-05-11T03:09:46.418Z,70.02
2017-05-11T03:12:17.225Z,70.20
2017-05-11T03:14:47.992Z,70.06
2017-05-11T03:17:18.831Z,70.20
2017-05-11T03:19:49.617Z,70.37
2017-05-11T03:22:20.473Z,70.13
2017-05-11T03:24:51.265Z,70.60
2017-05-11T03:27:22.136Z,70.79
2017-05-11T03:29:52.906Z,70.82
2017-05-11T03:32:23.666Z,70.24
2017-05-11T03:34:54.461Z,70.28
2017-05-11T03:37:25.196Z,70.37
2017-05-11T03:39:56.044Z,70.58
2017-05-11T03:42:26.793Z,70.57
2017-05-11T03:44:57.574Z,70.45
2017-05-11T03:47:28.318Z,70.76
2017-05-11T03:49:59.099Z,71.04
2017-05-11T03:52:29.861Z,70.96
2017-05-11T03:55:05.830Z,70.74
2017-05-11T03:57:43.361Z,70.64
2017-05-11T04:00:26.985Z,70.42
2017-05-11T04:03:00.597Z,70.61
2017-05-11T04:05:31.384Z,71.26
2017-05-11T04:08:03.926Z,71.07
2017-05-11T04:10:45.153Z,71.14
2017-05-11T04:13:28.410Z,71.10
2017-05-11T04:16:02.786Z,71.38
2017-05-11T04:18:33.718Z,71.36
2017-05-11T04:24:10.445Z,71.27
2017-05-11T04:26:41.299Z,71.45
2017-05-11T04:29:12.119Z,71.77
2017-05-11T04:31:42.943Z,72.21
2017-05-11T04:34:13.711Z,72.21
2017-05-11T04:36:44.524Z,72.85
2017-05-11T04:39:15.286Z,72.14
2017-05-11T04:41:46.504Z,72.01
2017-05-11T04:44:17.298Z,72.86
2017-05-11T04:46:48.126Z,73.28
2017-05-11T04:49:18.985Z,73.28
2017-05-11T04:51:49.774Z,73.55
2017-05-11T04:54:21.494Z,73.58
2017-05-11T04:56:52.402Z,74.41
2017-05-11T04:59:23.824Z,74.42
2017-05-11T05:01:55.951Z,74.38
2017-05-11T05:04:27.507Z,74.29
2017-05-11T05:06:58.654Z,74.82
2017-05-11T05:09:29.490Z,74.37
2017-05-11T05:12:00.303Z,74.43
2017-05-11T05:14:31.097Z,73.87
2017-05-11T05:17:02.096Z,73.56
2017-05-11T05:19:32.907Z,73.82
2017-05-11T05:22:03.766Z,73.91
2017-05-11T05:24:34.567Z,73.95
2017-05-11T05:27:05.416Z,73.21
2017-05-11T05:29:36.230Z,73.54
2017-05-11T05:32:07.041Z,73.47
2017-05-11T05:34:37.831Z,73.19
2017-05-11T05:37:08.635Z,73.05
2017-05-11T05:39:39.389Z,73.21
2017-05-11T05:42:10.198Z,72.32
2017-05-11T05:44:40.974Z,72.63
2017-05-11T05:47:13.606Z,72.14
2017-05-11T05:49:48.688Z,71.09
2017-05-11T05:52:21.902Z,70.68
2017-05-11T05:54:54.910Z,70.73
2017-05-11T05:57:30.235Z,70.83
2017-05-11T06:00:04.249Z,71.44
2017-05-11T06:02:37.789Z,70.73
2017-05-11T06:05:10.477Z,70.56
2017-05-11T06:07:44.679Z,70.90
2017-05-11T06:10:18.282Z,70.50
2017-05-11T06:12:52.028Z,71.60
2017-05-11T06:15:24.607Z,71.13
2017-05-11T06:17:58.114Z,71.22
2017-05-11T06:20:32.520Z,70.63
2017-05-11T06:23:06.535Z,70.59
2017-05-11T06:25:39.266Z,71.09
2017-05-11T06:28:11.978Z,71.20
2017-05-11T06:30:44.831Z,71.05
2017-05-11T06:33:17.738Z,71.77
2017-05-11T06:35:51.099Z,71.43
2017-05-11T06:38:24.633Z,71.32
2017-05-11T06:40:57.681Z,70.84
2017-05-11T06:43:31.674Z,71.22
2017-05-11T06:46:05.169Z,70.62
2017-05-11T06:48:39.056Z,70.73
2017-05-11T06:51:13.346Z,71.09
2017-05-11T06:53:47.107Z,70.54
2017-05-11T06:56:20.316Z,69.93
2017-05-11T06:58:54.350Z,68.93
2017-05-11T07:01:27.969Z,69.19
2017-05-11T07:04:01.625Z,68.41
2017-05-11T07:06:35.442Z,68.24
2017-05-11T07:09:09.222Z,65.13
2017-05-11T07:11:42.087Z,65.82
2017-05-11T07:14:15.591Z,65.68
2017-05-11T07:16:49.987Z,65.64
2017-05-11T07:19:22.338Z,65.21
2017-05-11T07:21:55.639Z,65.31
2017-05-11T07:24:29.297Z,65.22
2017-05-11T07:27:02.672Z,64.94
2017-05-11T07:29:35.077Z,64.42
2017-05-11T07:32:06.174Z,63.74
2017-05-11T07:34:37.616Z,63.22
2017-05-11T07:37:08.537Z,63.05
2017-05-11T07:39:39.586Z,62.15
2017-05-11T07:42:10.352Z,62.44
2017-05-11T07:44:41.155Z,63.26
2017-05-11T07:47:11.951Z,61.64
2017-05-11T07:49:42.786Z,61.45
2017-05-11T07:52:13.542Z,61.64
2017-05-11T07:54:44.162Z,61.59
2017-05-11T07:57:14.927Z,62.63
2017-05-11T07:59:45.747Z,62.20
2017-05-11T08:02:16.534Z,61.58
2017-05-11T08:04:47.409Z,61.54
2017-05-11T08:07:18.216Z,61.71
2017-05-11T08:09:49.048Z,61.71
2017-05-11T08:12:19.821Z,60.13
2017-05-11T08:14:50.630Z,60.40
2017-05-11T08:17:21.384Z,61.14
2017-05-11T08:19:52.256Z,59.17
2017-05-11T08:22:23.054Z,60.77
2017-05-11T08:24:53.889Z,59.90
2017-05-11T08:27:24.655Z,60.69
2017-05-11T08:29:55.472Z,60.28
2017-05-11T08:32:26.312Z,60.28
2017-05-11T08:34:57.158Z,58.81
2017-05-11T08:37:27.959Z,58.71
2017-05-11T08:39:58.851Z,58.71
2017-05-11T08:42:29.850Z,57.80
2017-05-11T08:45:00.671Z,57.23
2017-05-11T08:47:31.469Z,57.80
2017-05-11T08:50:02.348Z,58.05
2017-05-11T08:52:33.288Z,59.06
2017-05-11T08:55:04.254Z,59.01
2017-05-11T08:57:35.028Z,56.46
2017-05-11T09:00:05.843Z,57.11
2017-05-11T09:02:37.355Z,57.26
2017-05-11T09:05:08.194Z,57.45
2017-05-11T09:07:38.964Z,56.53
2017-05-11T09:10:09.899Z,57.40
2017-05-11T09:12:40.686Z,56.54
2017-05-11T09:15:11.510Z,56.32
2017-05-11T09:17:42.292Z,55.62
2017-05-11T09:20:13.094Z,54.84
2017-05-11T09:22:43.860Z,55.68
2017-05-11T09:25:14.708Z,55.33
2017-05-11T09:27:45.496Z,55.94
2017-05-11T09:30:16.326Z,55.85
2017-05-11T09:32:47.139Z,54.97
2017-05-11T09:35:18.810Z,54.52
2017-05-11T09:37:49.657Z,53.38
2017-05-11T09:40:20.470Z,53.10
2017-05-11T09:42:51.236Z,53.91
2017-05-11T09:45:22.051Z,52.31
2017-05-11T09:47:52.847Z,52.44
2017-05-11T09:50:23.957Z,52.11
2017-05-11T09:52:54.828Z,51.51
2017-05-11T09:55:25.643Z,51.72
2017-05-11T09:57:56.423Z,52.57
2017-05-11T10:00:27.326Z,52.42
2017-05-11T10:02:58.082Z,52.93
2017-05-11T10:05:28.897Z,53.37
2017-05-11T10:07:59.682Z,52.25
2017-05-11T10:10:30.518Z,52.22
2017-05-11T10:13:01.294Z,51.94
2017-05-11T10:15:32.185Z,50.41
2017-05-11T10:18:03.129Z,51.92
2017-05-11T10:20:34.244Z,50.30
2017-05-11T10:23:05.015Z,51.44
2017-05-11T10:25:35.814Z,50.36
2017-05-11T10:28:06.607Z,49.72
2017-05-11T10:30:37.455Z,47.58
2017-05-11T10:33:08.211Z,48.40
2017-05-11T10:35:39.070Z,49.25
2017-05-11T10:38:09.846Z,49.40
2017-05-11T10:40:40.655Z,49.11
2017-05-11T10:43:11.421Z,48.64
2017-05-11T10:45:42.235Z,48.75
2017-05-11T10:48:13.034Z,48.81
2017-05-11T10:50:43.849Z,47.54
2017-05-11T10:53:14.616Z,47.24
2017-05-11T10:55:45.450Z,45.64
2017-05-11T10:58:16.222Z,45.08
2017-05-11T11:00:47.046Z,45.86
2017-05-11T11:03:17.819Z,45.35
2017-05-11T11:05:48.650Z,45.34
2017-05-11T11:08:19.490Z,46.36
2017-05-11T11:10:50.422Z,44.20
2017-05-11T11:13:21.245Z,43.30
2017-05-11T11:15:52.055Z,43.46
2017-05-11T11:18:22.824Z,42.28
2017-05-11T11:20:53.672Z,43.33
2017-05-11T11:23:24.491Z,40.75
2017-05-11T11:25:55.282Z,40.49
2017-05-11T11:28:26.039Z,40.32
2017-05-11T11:30:56.850Z,40.53
2017-05-11T11:33:27.645Z,40.56
2017-05-11T11:35:58.463Z,40.56
2017-05-11T11:38:29.230Z,39.09
2017-05-11T11:41:00.027Z,39.92
2017-05-11T11:43:30.781Z,38.95
2017-05-11T11:46:01.662Z,39.76
2017-05-11T11:48:32.472Z,40.24
2017-05-11T11:51:03.191Z,39.17
2017-05-11T11:53:34.044Z,39.47
2017-05-11T11:56:04.843Z,38.39
2017-05-11T11:58:35.651Z,39.09
2017-05-11T12:01:06.455Z,38.36
2017-05-11T12:03:37.269Z,37.50
2017-05-11T12:06:08.095Z,37.09
2017-05-11T12:08:38.861Z,38.50
2017-05-11T12:11:09.769Z,38.30
2017-05-11T12:13:40.528Z,37.20
2017-05-11T12:16:11.332Z,36.27
2017-05-11T12:18:42.096Z,36.81
2017-05-11T12:21:12.942Z,37.05
2017-05-11T12:23:43.723Z,37.97
2017-05-11T12:26:14.572Z,38.18
2017-05-11T12:28:45.341Z,37.56
2017-05-11T12:31:16.138Z,37.97
2017-05-11T12:33:46.951Z,38.22
2017-05-11T12:36:17.737Z,37.93
2017-05-11T12:38:48.498Z,38.53
2017-05-11T12:41:19.358Z,38.33
2017-05-11T12:43:50.122Z,38.62
2017-05-11T12:46:20.957Z,38.45
2017-05-11T12:48:51.742Z,37.90
2017-05-11T12:51:22.551Z,38.44
2017-05-11T12:53:53.358Z,37.71
2017-05-11T12:56:24.170Z,38.26
2017-05-11T12:58:54.939Z,38.43
2017-05-11T13:01:25.730Z,37.44
2017-05-11T13:03:56.529Z,38.53
2017-05-11T13:06:27.351Z,38.05
2017-05-11T13:08:58.186Z,37.76
2017-05-11T13:11:28.995Z,38.00
2017-05-11T13:13:59.749Z,38.16
2017-05-11T13:16:30.556Z,37.83
2017-05-11T13:19:01.341Z,37.86
2017-05-11T13:21:32.151Z,38.59
2017-05-11T13:24:02.917Z,38.05
2017-05-11T13:26:33.859Z,38.01
2017-05-11T13:29:04.660Z,37.65
2017-05-11T13:31:35.492Z,37.20
2017-05-11T13:34:06.317Z,37.38
2017-05-11T13:36:37.136Z,37.01
2017-05-11T13:39:07.883Z,38.04
2017-05-11T13:41:38.699Z,37.44
2017-05-11T13:44:09.555Z,37.61
2017-05-11T13:46:40.432Z,37.00
2017-05-11T13:49:11.196Z,37.42
2017-05-11T13:51:41.998Z,37.41
2017-05-11T13:54:12.756Z,37.22
2017-05-11T13:56:43.558Z,37.06
2017-05-11T13:59:14.313Z,38.60
2017-05-11T14:01:45.125Z,38.00
2017-05-11T14:04:15.890Z,37.39
2017-05-11T14:06:46.703Z,37.63
2017-05-11T14:09:17.466Z,36.01
2017-05-11T14:11:48.276Z,36.26
2017-05-11T14:14:21.951Z,36.00
2017-05-11T14:16:52.766Z,36.74
2017-05-11T14:19:23.529Z,36.08
2017-05-11T14:21:54.335Z,35.80
2017-05-11T14:24:25.100Z,36.11
2017-05-11T14:26:55.883Z,36.06
2017-05-11T14:29:26.698Z,36.50
2017-05-11T14:31:57.506Z,36.49
2017-05-11T14:34:28.308Z,36.93
2017-05-11T14:36:59.162Z,36.38
2017-05-11T14:39:29.914Z,35.99
2017-05-11T14:42:00.741Z,35.73
2017-05-11T14:44:31.522Z,36.15
2017-05-11T14:47:02.392Z,36.31
2017-05-11T14:49:33.220Z,36.44
2017-05-11T14:52:04.074Z,36.76
2017-05-11T14:54:34.890Z,35.30
2017-05-11T14:57:05.710Z,35.31
2017-05-11T14:59:36.481Z,36.80
2017-05-11T15:02:07.273Z,36.29
2017-05-11T15:04:38.050Z,36.42
2017-05-11T15:07:08.926Z,36.03
2017-05-11T15:09:39.680Z,36.18
2017-05-11T15:12:10.501Z,36.38
2017-05-11T15:14:41.243Z,35.10
2017-05-11T15:17:12.049Z,35.96
2017-05-11T15:19:42.834Z,35.30
2017-05-11T15:22:13.613Z,34.94
2017-05-11T15:24:44.382Z,35.08
2017-05-11T15:27:15.237Z,35.31
2017-05-11T15:29:45.986Z,36.66
2017-05-11T15:32:16.790Z,38.89
2017-05-11T15:34:47.634Z,39.96
2017-05-11T15:37:18.430Z,40.53
2017-05-11T15:39:49.309Z,40.33
2017-05-11T15:42:20.245Z,40.31
2017-05-11T15:44:50.806Z,40.49
2017-05-11T15:47:21.591Z,38.78
2017-05-11T15:49:59.885Z,37.10
2017-05-11T15:52:38.841Z,37.66
2017-05-11T15:55:13.735Z,37.23
2017-05-11T15:57:52.111Z,38.22
2017-05-11T16:00:24.928Z,37.84
2017-05-11T16:02:56.386Z,37.90
2017-05-11T16:05:29.231Z,38.18
2017-05-11T16:08:02.956Z,38.80
2017-05-11T16:10:34.786Z,38.90
2017-05-11T16:13:07.041Z,39.08
2017-05-11T16:15:39.253Z,38.66
2017-05-11T16:18:14.559Z,39.71
2017-05-11T16:20:46.259Z,38.34
2017-05-11T16:23:19.479Z,38.63
2017-05-11T16:25:50.735Z,39.11
2017-05-11T16:28:24.153Z,39.10
2017-05-11T16:30:58.350Z,40.52
2017-05-11T16:33:31.180Z,41.26
2017-05-11T16:36:03.264Z,41.64
2017-05-11T16:38:41.286Z,41.42
2017-05-11T16:41:23.711Z,40.91
2017-05-11T16:44:05.756Z,41.26
2017-05-11T16:46:48.652Z,41.51
2017-05-11T16:49:22.206Z,40.81
2017-05-11T16:51:54.846Z,40.50
2017-05-11T16:54:26.969Z,41.13
2017-05-11T16:56:58.851Z,41.15
2017-05-11T16:59:33.120Z,42.00
2017-05-11T17:02:08.281Z,41.52
2017-05-11T17:04:46.323Z,41.64
2017-05-11T17:07:30.000Z,41.77
2017-05-11T17:12:53.585Z,42.43
2017-05-11T17:15:24.642Z,43.01
2017-05-11T17:17:55.447Z,43.13
2017-05-11T17:20:26.251Z,43.33
2017-05-11T17:22:57.042Z,43.66
2017-05-11T17:25:28.011Z,43.99
2017-05-11T17:27:58.773Z,44.10
2017-05-11T17:30:29.677Z,44.59
2017-05-11T17:33:00.509Z,44.79
2017-05-11T17:35:31.127Z,44.74
2017-05-11T17:38:01.883Z,45.30
2017-05-11T17:40:32.715Z,45.71
2017-05-11T17:43:03.683Z,45.37
2017-05-11T17:45:34.590Z,45.65
2017-05-11T17:48:05.053Z,45.77
2017-05-11T17:50:35.879Z,45.73
2017-05-11T17:53:06.641Z,46.32
2017-05-11T17:55:37.490Z,46.50
2017-05-11T17:58:08.239Z,45.80
2017-05-11T18:00:39.071Z,46.03
2017-05-11T18:03:09.824Z,45.68
2017-05-11T18:05:40.655Z,45.90
2017-05-11T18:08:11.422Z,46.25
2017-05-11T18:10:42.206Z,46.41
2017-05-11T18:13:13.121Z,46.19
2017-05-11T18:15:43.921Z,46.15
2017-05-11T18:18:14.687Z,46.49
2017-05-11T18:20:45.495Z,46.94
2017-05-11T18:23:16.261Z,46.87
2017-05-11T18:25:47.079Z,47.18
2017-05-11T18:28:17.838Z,47.36
2017-05-11T18:30:48.880Z,47.25
2017-05-11T18:33:19.640Z,46.97
2017-05-11T18:35:50.461Z,47.32
2017-05-11T18:38:21.219Z,47.48
2017-05-11T18:40:52.011Z,48.04
2017-05-11T18:43:22.788Z,49.16
2017-05-11T18:45:53.615Z,48.63
2017-05-11T18:48:24.377Z,48.41
2017-05-11T18:50:55.346Z,48.12
2017-05-11T18:53:26.113Z,48.32
2017-05-11T18:55:56.928Z,48.76
2017-05-11T18:58:27.726Z,48.82
2017-05-11T19:00:58.587Z,49.14
2017-05-11T19:03:29.381Z,48.63
2017-05-11T19:06:00.192Z,48.62
2017-05-11T19:08:30.954Z,48.55
2017-05-11T19:11:02.923Z,48.06
2017-05-11T19:13:33.803Z,48.48
2017-05-11T19:16:04.626Z,47.97
2017-05-11T19:18:35.820Z,48.45
2017-05-11T19:21:06.788Z,48.01
2017-05-11T19:23:37.605Z,48.21
2017-05-11T19:26:08.412Z,48.16
2017-05-11T19:28:39.189Z,48.31
2017-05-11T19:31:09.972Z,48.91
2017-05-11T19:33:40.751Z,48.66
2017-05-11T19:36:13.655Z,48.70
2017-05-11T19:38:44.704Z,48.53
2017-05-11T19:41:15.535Z,48.23
2017-05-11T19:43:46.301Z,48.93
2017-05-11T19:46:17.121Z,48.22
2017-05-11T19:48:47.903Z,48.38
2017-05-11T19:51:18.704Z,47.40
2017-05-11T19:53:49.460Z,48.33
2017-05-11T19:56:20.717Z,47.72
2017-05-11T19:58:52.164Z,47.57
2017-05-11T20:01:23.706Z,47.76
2017-05-11T20:03:55.172Z,47.16
2017-05-11T20:06:26.726Z,47.70
2017-05-11T20:08:57.859Z,47.92
2017-05-11T20:11:28.655Z,48.07
2017-05-11T20:13:59.401Z,47.96
2017-05-11T20:16:30.209Z,48.58
2017-05-11T20:19:00.975Z,49.08
2017-05-11T20:21:31.778Z,49.84
2017-05-11T20:24:02.574Z,49.39
2017-05-11T20:26:33.357Z,49.80
2017-05-11T20:29:04.346Z,51.57
2017-05-11T20:31:35.204Z,51.88
2017-05-11T20:34:05.984Z,51.26
2017-05-11T20:36:36.783Z,51.61
2017-05-11T20:39:07.579Z,50.75
2017-05-11T20:41:38.388Z,49.38
2017-05-11T20:44:09.694Z,50.82
2017-05-11T20:46:40.539Z,50.83
2017-05-11T20:49:11.308Z,50.94
2017-05-11T20:51:42.067Z,50.23
2017-05-11T20:54:12.947Z,49.95
2017-05-11T20:56:43.722Z,50.15
2017-05-11T20:59:14.510Z,50.54
2017-05-11T21:01:45.617Z,50.67
2017-05-11T21:04:16.399Z,51.10
2017-05-11T21:06:47.159Z,51.70
2017-05-11T21:09:18.317Z,50.99
2017-05-11T21:11:52.081Z,51.62
2017-05-11T21:14:22.852Z,51.67
2017-05-11T21:16:53.619Z,52.07
2017-05-11T21:19:24.419Z,52.27
2017-05-11T21:21:55.177Z,52.04
2017-05-11T21:24:25.954Z,51.35
2017-05-11T21:26:56.706Z,51.07
2017-05-11T21:29:27.512Z,51.16
2017-05-11T21:31:58.267Z,51.70
2017-05-11T21:34:29.071Z,51.46
2017-05-11T21:36:59.891Z,51.89
2017-05-11T21:39:30.754Z,52.50
2017-05-11T21:42:02.101Z,53.15
2017-05-11T21:44:32.918Z,52.51
2017-05-11T21:47:03.719Z,53.54
2017-05-11T21:49:34.683Z,53.13
2017-05-11T21:52:05.475Z,53.09
2017-05-11T21:54:36.274Z,52.87
2017-05-11T21:57:07.023Z,53.14
2017-05-11T21:59:37.858Z,53.17
2017-05-11T22:02:08.605Z,53.38
2017-05-11T22:04:40.259Z,53.26
2017-05-11T22:07:11.049Z,53.59
2017-05-11T22:09:41.835Z,53.77
2017-05-11T22:12:12.630Z,54.00
2017-05-11T22:14:43.455Z,54.39
2017-05-11T22:17:14.203Z,55.11
2017-05-11T22:19:45.006Z,54.59
2017-05-11T22:22:15.788Z,55.35
2017-05-11T22:24:46.640Z,55.16
2017-05-11T22:27:17.398Z,54.92
2017-05-11T22:29:48.239Z,55.10
2017-05-11T22:32:18.979Z,55.15
2017-05-11T22:34:49.789Z,55.80
2017-05-11T22:37:20.609Z,55.90
2017-05-11T22:39:51.415Z,56.18
2017-05-11T22:42:22.154Z,56.08
2017-05-11T22:44:52.967Z,56.44
2017-05-11T22:47:23.742Z,56.82
2017-05-11T22:49:54.576Z,56.21
2017-05-11T22:52:25.360Z,56.32
2017-05-11T22:54:56.153Z,56.96
2017-05-11T22:57:26.902Z,57.36
2017-05-11T22:59:57.728Z,57.19
2017-05-11T23:02:28.484Z,56.41
2017-05-11T23:04:59.280Z,56.54
2017-05-11T23:07:30.036Z,56.72
2017-05-11T23:10:00.831Z,56.58
2017-05-11T23:12:31.651Z,56.55
2017-05-11T23:15:02.449Z,56.52
2017-05-11T23:17:33.195Z,56.74
2017-05-11T23:20:04.134Z,56.45
2017-05-11T23:22:34.973Z,56.48
2017-05-11T23:25:05.758Z,57.27
2017-05-11T23:27:36.560Z,57.09
2017-05-11T23:30:07.386Z,57.15
2017-05-11T23:32:38.130Z,56.58
2017-05-11T23:35:08.930Z,57.02
2017-05-11T23:37:39.732Z,57.26
2017-05-11T23:40:10.546Z,57.15
2017-05-11T23:42:41.287Z,57.39
2017-05-11T23:45:12.074Z,57.55
2017-05-11T23:47:42.839Z,57.19
2017-05-11T23:50:13.654Z,57.21
2017-05-11T23:52:44.442Z,57.08
2017-05-11T23:55:15.228Z,57.44
2017-05-11T23:57:45.979Z,57.94
